createdAt,value
2022-11-22T00:02:00.208Z,99134.67
2022-11-22T00:04:28.536Z,99138.58
2022-11-22T00:06:56.800Z,99139.12
2022-11-22T00:09:25.497Z,99136.63
2022-11-22T00:11:54.757Z,99131.33
2022-11-22T00:14:23.574Z,99122.35
2022-11-22T00:16:57.728Z,99115.46
2022-11-22T00:19:31.575Z,99111.11
2022-11-22T00:22:04.330Z,99107.85
2022-11-22T00:24:35.415Z,99100.17
2022-11-22T00:27:03.790Z,99092.17
2022-11-22T00:29:32.374Z,99095.71
2022-11-22T00:32:00.866Z,99091.64
2022-11-22T00:34:29.339Z,99084.23
2022-11-22T00:36:57.720Z,99085.89
2022-11-22T00:39:26.242Z,99082.77
2022-11-22T00:41:54.687Z,99090.48
2022-11-22T00:44:23.062Z,99094.50
2022-11-22T00:46:51.538Z,99090.77
2022-11-22T00:49:19.918Z,99090.96
2022-11-22T00:51:48.300Z,99087.65
2022-11-22T00:54:16.676Z,99092.42
2022-11-22T00:56:45.037Z,99090.41
2022-11-22T00:59:13.838Z,99095.48
2022-11-22T01:01:42.432Z,99092.98
2022-11-22T01:04:10.907Z,99094.35
2022-11-22T01:06:39.706Z,99091.77
2022-11-22T01:09:08.166Z,99087.63
2022-11-22T01:11:36.423Z,99083.21
2022-11-22T01:14:04.845Z,99078.29
2022-11-22T01:16:33.119Z,99070.23
2022-11-22T01:19:01.397Z,99073.42
2022-11-22T01:21:29.578Z,99071.57
2022-11-22T01:23:57.948Z,99065.13
2022-11-22T01:26:26.562Z,99067.79
2022-11-22T01:28:55.498Z,99065.35
2022-11-22T01:31:23.684Z,99064.86
2022-11-22T01:33:52.047Z,99066.13
2022-11-22T01:36:21.040Z,99063.63
2022-11-22T01:38:49.731Z,99064.90
2022-11-22T01:41:18.093Z,99067.73
2022-11-22T01:43:46.496Z,99072.85
2022-11-22T01:46:37.507Z,99070.75
2022-11-22T01:49:19.898Z,99055.16
2022-11-22T01:51:51.463Z,99050.38
2022-11-22T01:54:24.591Z,99042.79
2022-11-22T01:56:58.887Z,99039.70
2022-11-22T01:59:31.079Z,99037.52
2022-11-22T02:02:01.322Z,99035.14
2022-11-22T02:04:32.696Z,99036.92
2022-11-22T02:07:13.640Z,99041.58
2022-11-22T02:09:44.114Z,99039.83
2022-11-22T02:12:13.795Z,99042.95
2022-11-22T02:14:43.538Z,99037.23
2022-11-22T02:17:11.739Z,99045.70
2022-11-22T02:19:45.856Z,99040.04
2022-11-22T02:22:35.802Z,99039.60
2022-11-22T02:25:30.150Z,99037.10
2022-11-22T02:27:59.486Z,99038.07
2022-11-22T02:30:28.161Z,99036.70
2022-11-22T02:32:56.659Z,99032.35
2022-11-22T02:35:28.209Z,99032.10
2022-11-22T02:38:06.412Z,99030.22
2022-11-22T02:40:40.541Z,99026.03
2022-11-22T02:43:14.511Z,99019.93
2022-11-22T02:45:43.110Z,99027.08
2022-11-22T02:48:14.324Z,99021.50
2022-11-22T02:50:43.651Z,99016.29
2022-11-22T02:53:12.572Z,99013.45
2022-11-22T02:55:41.198Z,99012.34
2022-11-22T02:58:09.731Z,99012.71
2022-11-22T03:00:39.638Z,99018.94
2022-11-22T03:03:07.977Z,99014.09
2022-11-22T03:05:36.316Z,99018.02
2022-11-22T03:08:04.526Z,99018.13
2022-11-22T03:10:33.063Z,99020.42
2022-11-22T03:13:01.441Z,99014.69
2022-11-22T03:15:29.809Z,99013.75
2022-11-22T03:18:02.297Z,99015.21
2022-11-22T03:20:31.598Z,99013.41
2022-11-22T03:23:03.348Z,99001.21
2022-11-22T03:25:31.718Z,99002.83
2022-11-22T03:28:00.110Z,99005.55
2022-11-22T03:30:28.483Z,99006.73
2022-11-22T03:32:56.753Z,99014.02
2022-11-22T03:35:25.235Z,99013.92
2022-11-22T03:37:53.711Z,99009.73
2022-11-22T03:40:22.349Z,99003.18
2022-11-22T03:42:50.630Z,98998.98
2022-11-22T03:45:18.869Z,99006.34
2022-11-22T03:47:47.033Z,99008.23
2022-11-22T03:50:16.340Z,99014.26
2022-11-22T03:52:44.537Z,99012.59
2022-11-22T03:55:12.673Z,99012.06
2022-11-22T03:57:40.951Z,99005.14
2022-11-22T04:00:09.917Z,99004.27
2022-11-22T04:02:40.126Z,99005.23
2022-11-22T04:05:08.857Z,99005.75
2022-11-22T04:07:37.271Z,99002.20
2022-11-22T04:10:07.156Z,99004.16
2022-11-22T04:12:35.927Z,98996.84
2022-11-22T04:15:07.812Z,98999.42
2022-11-22T04:17:41.408Z,98996.79
2022-11-22T04:20:34.887Z,98997.73
2022-11-22T04:23:10.437Z,98988.34
2022-11-22T04:25:41.796Z,98987.48
2022-11-22T04:28:11.790Z,98992.78
2022-11-22T04:30:59.401Z,98997.25
2022-11-22T04:33:28.141Z,99000.32
2022-11-22T04:35:56.639Z,99002.02
2022-11-22T04:38:25.093Z,98997.20
2022-11-22T04:40:54.770Z,99002.03
2022-11-22T04:43:47.936Z,99000.57
2022-11-22T04:46:16.836Z,98993.55
2022-11-22T04:48:45.205Z,98997.77
2022-11-22T04:51:34.268Z,98994.77
2022-11-22T04:54:03.043Z,98990.24
2022-11-22T04:56:31.322Z,98989.22
2022-11-22T04:58:59.490Z,98985.33
2022-11-22T05:01:27.817Z,98980.70
2022-11-22T05:03:56.255Z,98977.91
2022-11-22T05:06:24.610Z,98981.80
2022-11-22T05:08:52.891Z,98984.94
2022-11-22T05:11:22.110Z,98992.86
2022-11-22T05:13:50.807Z,98993.72
2022-11-22T05:16:19.618Z,98998.84
2022-11-22T05:18:59.623Z,99006.72
2022-11-22T05:21:30.265Z,99013.77
2022-11-22T05:23:59.058Z,99016.63
2022-11-22T05:26:28.471Z,99013.64
2022-11-22T05:29:00.581Z,99007.66
2022-11-22T05:31:29.219Z,99004.93
2022-11-22T05:33:57.877Z,99004.56
2022-11-22T05:36:26.563Z,99002.15
2022-11-22T05:38:55.372Z,99000.60
2022-11-22T05:41:23.653Z,99002.14
2022-11-22T05:43:55.613Z,98993.64
2022-11-22T05:46:29.221Z,98998.36
2022-11-22T05:48:59.789Z,99008.17
2022-11-22T05:51:34.618Z,99006.98
2022-11-22T05:54:05.034Z,99010.42
2022-11-22T05:56:34.010Z,99015.27
2022-11-22T05:59:02.485Z,99025.13
2022-11-22T06:01:30.978Z,99028.27
2022-11-22T06:03:59.430Z,99023.64
2022-11-22T06:06:27.720Z,99023.58
2022-11-22T06:08:57.169Z,99019.86
2022-11-22T06:11:28.267Z,99018.73
2022-11-22T06:14:03.642Z,99021.27
2022-11-22T06:16:32.436Z,99015.52
2022-11-22T06:19:01.289Z,99017.02
2022-11-22T06:21:31.646Z,99008.35
2022-11-22T06:24:00.702Z,99013.59
2022-11-22T06:26:32.417Z,99021.96
2022-11-22T06:29:04.945Z,99027.45
2022-11-22T06:31:33.723Z,99031.08
2022-11-22T06:34:02.830Z,99041.16
2022-11-22T06:36:33.893Z,99055.09
2022-11-22T06:39:05.418Z,99062.73
2022-11-22T06:41:36.896Z,99067.90
2022-11-22T06:44:07.380Z,99065.84
2022-11-22T06:46:36.999Z,99059.96
2022-11-22T06:49:06.829Z,99062.88
2022-11-22T06:51:35.718Z,99076.02
2022-11-22T06:54:05.196Z,99077.64
2022-11-22T06:56:38.788Z,99081.85
2022-11-22T06:59:10.669Z,99080.34
2022-11-22T07:01:39.707Z,99075.19
2022-11-22T07:04:09.399Z,99073.88
2022-11-22T07:06:39.417Z,99068.34
2022-11-22T07:09:12.725Z,99060.60
2022-11-22T07:11:42.093Z,99052.13
2022-11-22T07:14:11.815Z,99038.05
2022-11-22T07:16:41.028Z,99039.86
2022-11-22T07:19:11.053Z,99041.16
2022-11-22T07:21:40.647Z,99046.61
2022-11-22T07:24:11.991Z,99048.23
2022-11-22T07:26:42.215Z,99047.63
2022-11-22T07:29:11.023Z,99043.48
2022-11-22T07:31:41.492Z,99050.77
2022-11-22T07:34:11.138Z,99053.39
2022-11-22T07:36:40.844Z,99055.62
2022-11-22T07:39:10.307Z,99060.14
2022-11-22T07:41:39.754Z,99057.57
2022-11-22T07:44:08.442Z,99052.44
2022-11-22T07:46:36.917Z,99048.67
2022-11-22T07:49:05.829Z,99044.64
2022-11-22T07:51:34.142Z,99043.92
2022-11-22T07:54:06.397Z,99035.54
2022-11-22T07:56:40.605Z,99025.48
2022-11-22T07:59:09.948Z,99023.00
2022-11-22T08:01:38.976Z,99019.05
2022-11-22T08:04:07.312Z,99017.08
2022-11-22T08:06:35.692Z,99013.98
2022-11-22T08:09:13.026Z,99013.22
2022-11-22T08:11:45.609Z,99014.29
2022-11-22T08:14:18.531Z,99013.25
2022-11-22T08:16:52.149Z,99012.77
2022-11-22T08:19:20.932Z,99014.14
2022-11-22T08:21:52.715Z,99013.77
2022-11-22T08:24:25.675Z,99020.21
2022-11-22T08:26:54.368Z,99017.71
2022-11-22T08:29:23.486Z,99018.73
2022-11-22T08:31:52.783Z,99026.70
2022-11-22T08:34:21.861Z,99022.06
2022-11-22T08:36:50.549Z,99023.65
2022-11-22T08:39:19.440Z,99020.69
2022-11-22T08:41:48.977Z,99025.96
2022-11-22T08:44:17.527Z,99031.48
2022-11-22T08:46:46.127Z,99029.73
2022-11-22T08:49:14.801Z,99033.75
2022-11-22T08:51:45.226Z,99035.48
2022-11-22T08:54:15.448Z,99032.96
2022-11-22T08:56:44.551Z,99033.77
2022-11-22T08:59:13.227Z,99033.73
2022-11-22T09:01:41.693Z,99035.32
2022-11-22T09:04:10.927Z,99038.66
2022-11-22T09:09:37.325Z,99040.38
2022-11-22T09:12:07.160Z,99043.39
2022-11-22T09:14:35.763Z,99044.46
2022-11-22T09:17:06.076Z,99044.03
2022-11-22T09:19:34.588Z,99038.49
2022-11-22T09:22:03.066Z,99038.14
2022-11-22T09:24:31.757Z,99030.21
2022-11-22T09:27:00.203Z,99023.80
2022-11-22T09:29:29.321Z,99018.94
2022-11-22T09:31:59.943Z,99016.77
2022-11-22T09:34:28.823Z,99023.91
2022-11-22T09:36:57.636Z,99023.23
2022-11-22T09:39:26.142Z,99025.38
2022-11-22T09:42:19.770Z,99026.19
2022-11-22T09:45:23.617Z,99026.69
2022-11-22T09:48:10.603Z,99035.20
2022-11-22T09:50:57.614Z,99035.70
2022-11-22T09:53:36.417Z,99038.29
2022-11-22T09:56:11.912Z,99035.81
2022-11-22T09:58:51.803Z,99023.48
2022-11-22T10:01:23.972Z,99033.07
2022-11-22T10:03:55.991Z,99035.61
2022-11-22T10:06:31.616Z,99034.63
2022-11-22T10:09:11.641Z,99027.19
2022-11-22T10:12:05.047Z,99026.11
2022-11-22T10:15:03.712Z,99023.55
2022-11-22T10:17:55.567Z,99021.92
2022-11-22T10:20:30.107Z,99008.07
2022-11-22T10:23:00.647Z,99016.88
2022-11-22T10:25:44.983Z,99008.70
2022-11-22T10:28:44.766Z,99010.89
2022-11-22T10:31:37.149Z,99013.38
2022-11-22T10:34:12.678Z,99009.76
2022-11-22T10:37:24.335Z,99010.70
2022-11-22T10:40:15.700Z,99013.70
2022-11-22T10:43:15.010Z,99008.08
2022-11-22T10:46:20.044Z,99015.23
2022-11-22T10:49:40.139Z,99009.21
2022-11-22T10:52:30.207Z,99006.95
2022-11-22T10:55:22.519Z,98999.92
2022-11-22T10:57:56.614Z,99005.01
2022-11-22T11:00:26.659Z,99013.66
2022-11-22T11:03:23.725Z,99016.59
2022-11-22T11:06:43.461Z,99022.55
2022-11-22T11:10:02.799Z,99025.45
2022-11-22T11:11:55.397Z,99017.77
2022-11-22T11:14:31.991Z,99014.31
2022-11-22T11:17:01.680Z,99014.31
2022-11-22T11:19:36.818Z,99016.28
2022-11-22T11:22:08.356Z,99015.80
2022-11-22T11:24:40.852Z,99010.78
2022-11-22T11:27:11.766Z,99010.27
2022-11-22T11:29:47.832Z,99004.33
2022-11-22T11:32:20.039Z,98997.09
2022-11-22T11:35:00.489Z,98995.77
2022-11-22T11:37:37.263Z,98997.39
2022-11-22T11:40:25.090Z,98997.14
2022-11-22T11:43:18.961Z,98994.00
2022-11-22T11:45:48.389Z,98990.55
2022-11-22T11:48:27.288Z,98986.55
2022-11-22T11:51:15.336Z,98986.16
2022-11-22T11:53:53.844Z,98990.40
2022-11-22T11:56:31.099Z,98974.80
2022-11-22T11:59:03.909Z,98971.33
2022-11-22T12:01:38.796Z,98973.09
2022-11-22T12:04:23.724Z,98972.32
2022-11-22T12:07:02.938Z,98966.52
2022-11-22T12:09:45.256Z,98967.26
2022-11-22T12:12:38.228Z,98973.06
2022-11-22T12:15:19.804Z,98971.77
2022-11-22T12:18:07.224Z,98971.02
2022-11-22T12:21:02.951Z,98971.50
2022-11-22T12:23:49.463Z,98955.67
2022-11-22T12:26:21.242Z,98965.46
2022-11-22T12:28:50.428Z,98962.58
2022-11-22T12:31:40.300Z,98961.11
2022-11-22T12:34:20.775Z,98961.17
2022-11-22T12:37:06.191Z,98963.13
2022-11-22T12:39:37.265Z,98965.94
2022-11-22T12:42:22.684Z,98960.39
2022-11-22T12:45:01.570Z,98957.59
2022-11-22T12:47:37.640Z,98959.78
2022-11-22T12:50:44.732Z,98954.73
2022-11-22T12:53:15.877Z,98958.59
2022-11-22T12:56:07.485Z,98955.14
2022-11-22T12:58:54.405Z,98958.73
2022-11-22T13:01:29.503Z,98958.18
2022-11-22T13:04:09.894Z,98949.54
2022-11-22T13:06:55.307Z,98946.94
2022-11-22T13:09:36.470Z,98951.17
2022-11-22T13:12:26.756Z,98947.44
2022-11-22T13:14:59.227Z,98950.35
2022-11-22T13:17:38.983Z,98951.61
2022-11-22T13:20:20.974Z,98948.06
2022-11-22T13:23:20.368Z,98955.71
2022-11-22T13:26:17.229Z,98955.17
2022-11-22T13:28:46.680Z,98947.73
2022-11-22T13:31:18.977Z,98954.04
2022-11-22T13:34:01.903Z,98956.16
2022-11-22T13:36:30.803Z,98956.60
2022-11-22T13:39:02.998Z,98954.67
2022-11-22T13:41:42.077Z,98954.01
2022-11-22T13:44:52.163Z,98957.90
2022-11-22T13:47:23.925Z,98961.20
2022-11-22T13:49:54.418Z,98960.80
2022-11-22T13:52:25.898Z,98963.97
2022-11-22T13:54:57.234Z,98960.92
2022-11-22T13:57:42.997Z,98952.52
2022-11-22T14:00:11.922Z,98938.84
2022-11-22T14:02:51.735Z,98950.40
2022-11-22T14:05:36.552Z,98951.11
2022-11-22T14:08:31.680Z,98953.52
2022-11-22T14:11:26.440Z,98943.94
2022-11-22T14:14:47.176Z,98952.71
2022-11-22T14:17:30.812Z,98950.81
2022-11-22T14:20:21.087Z,98953.82
2022-11-22T14:22:56.422Z,98954.65
2022-11-22T14:26:01.322Z,98952.95
2022-11-22T14:29:01.411Z,98956.66
2022-11-22T14:31:36.692Z,98959.38
2022-11-22T14:34:23.541Z,98957.52
2022-11-22T14:37:10.973Z,98955.55
2022-11-22T14:39:45.505Z,98958.15
2022-11-22T14:42:36.186Z,98956.60
2022-11-22T14:45:10.831Z,98959.05
2022-11-22T14:48:02.264Z,98962.98
2022-11-22T14:50:36.751Z,98961.51
2022-11-22T14:53:30.112Z,98960.44
2022-11-22T14:56:05.433Z,98961.80
2022-11-22T14:58:39.698Z,98955.38
2022-11-22T15:01:27.675Z,98955.59
2022-11-22T15:09:13.693Z,98955.07
2022-11-22T15:09:21.467Z,98954.26
2022-11-22T15:09:54.399Z,98953.83
2022-11-22T15:12:46.826Z,98949.30
2022-11-22T15:59:44.989Z,98980.79
2022-11-22T16:02:19.254Z,98985.43
2022-11-22T16:06:05.252Z,98989.47
2022-11-22T16:07:48.476Z,98995.79
2022-11-22T16:10:20.272Z,98999.73
2022-11-22T16:12:49.895Z,98998.23
2022-11-22T16:15:28.825Z,99005.42
2022-11-22T16:18:24.980Z,99001.93
2022-11-22T16:21:29.098Z,98996.37
2022-11-22T16:24:20.349Z,98998.45
2022-11-22T16:27:15.480Z,99003.45
2022-11-22T16:29:51.476Z,98998.42
2022-11-22T16:32:20.354Z,98993.55
2022-11-22T16:34:59.002Z,98993.83
2022-11-22T16:37:47.857Z,98995.04
2022-11-22T16:40:18.172Z,98993.98
2022-11-22T16:42:47.480Z,98990.02
2022-11-22T16:45:19.170Z,98985.72
2022-11-22T16:47:58.644Z,98990.33
2022-11-22T16:50:39.342Z,98984.79
2022-11-22T16:53:17.140Z,98985.82
2022-11-22T16:55:46.024Z,98986.58
2022-11-22T16:58:21.202Z,98990.83
2022-11-22T17:00:51.170Z,98990.73
2022-11-22T17:03:27.566Z,98994.27
2022-11-22T17:05:56.358Z,98989.86
2022-11-22T17:08:25.143Z,98990.70
2022-11-22T17:10:53.712Z,98993.63
2022-11-22T17:13:28.533Z,98999.35
2022-11-22T17:15:58.143Z,99001.71
2022-11-22T17:18:26.617Z,99004.44
2022-11-22T17:20:55.349Z,99004.16
2022-11-22T17:23:36.176Z,99003.14
2022-11-22T17:26:06.312Z,99010.95
2022-11-22T17:28:35.713Z,99014.95
2022-11-22T17:31:13.850Z,99015.50
2022-11-22T17:33:49.981Z,99012.86
2022-11-22T17:36:33.300Z,99009.75
2022-11-22T17:39:06.303Z,99009.00
2022-11-22T17:41:35.794Z,99006.63
2022-11-22T17:44:06.612Z,99007.92
2022-11-22T17:46:39.148Z,99016.14
2022-11-22T17:49:14.119Z,99018.56
2022-11-22T17:51:47.035Z,99028.54
2022-11-22T17:54:16.326Z,99023.98
2022-11-22T17:56:46.678Z,99011.27
2022-11-22T17:59:15.314Z,99028.23
2022-11-22T18:01:44.978Z,99031.65
2022-11-22T18:04:14.969Z,99036.71
2022-11-22T18:06:44.819Z,99039.52
2022-11-22T18:09:14.691Z,99038.61
2022-11-22T18:11:46.179Z,99043.02
2022-11-22T18:14:18.898Z,99045.93
2022-11-22T18:16:50.158Z,99048.01
2022-11-22T18:19:20.296Z,99056.80
2022-11-22T18:21:50.601Z,99060.47
2022-11-22T18:24:20.403Z,99064.81
2022-11-22T18:26:52.951Z,99068.51
2022-11-22T18:29:41.773Z,99070.48
2022-11-22T18:32:13.494Z,99077.84
2022-11-22T18:34:44.675Z,99079.22
2022-11-22T18:37:15.301Z,99084.56
2022-11-22T18:39:45.269Z,99084.06
2022-11-22T18:42:17.505Z,99080.95
2022-11-22T18:44:47.710Z,99079.87
2022-11-22T18:47:17.916Z,99079.51
2022-11-22T18:49:49.460Z,99072.90
2022-11-22T18:52:23.652Z,99076.81
2022-11-22T18:54:57.153Z,99073.95
2022-11-22T18:57:29.805Z,99072.84
2022-11-22T19:00:00.302Z,99073.55
2022-11-22T19:02:30.728Z,99077.63
2022-11-22T19:05:02.925Z,99075.80
2022-11-22T19:07:33.384Z,99070.91
2022-11-22T19:10:02.941Z,99068.98
2022-11-22T19:12:32.648Z,99070.64
2022-11-22T19:15:01.441Z,99070.20
2022-11-22T19:17:31.650Z,99069.96
2022-11-22T19:20:00.848Z,99076.14
2022-11-22T19:22:30.863Z,99080.20
2022-11-22T19:24:59.749Z,99082.70
2022-11-22T19:27:28.566Z,99076.92
2022-11-22T19:29:58.224Z,99090.90
2022-11-22T19:32:28.261Z,99094.49
2022-11-22T19:34:57.063Z,99091.95
2022-11-22T19:37:25.834Z,99092.65
2022-11-22T19:39:54.680Z,99100.70
2022-11-22T19:42:23.785Z,99100.16
2022-11-22T19:44:52.620Z,99097.57
2022-11-22T19:47:21.626Z,99095.02
2022-11-22T19:49:51.319Z,99089.92
2022-11-22T19:52:21.007Z,99086.52
2022-11-22T19:54:51.424Z,99086.13
2022-11-22T19:57:22.749Z,99089.35
2022-11-22T19:59:59.909Z,99091.95
2022-11-22T20:02:30.685Z,99102.17
2022-11-22T20:05:00.376Z,99108.08
2022-11-22T20:07:30.416Z,99108.28
2022-11-22T20:09:59.952Z,99105.80
2022-11-22T20:12:29.966Z,99106.14
2022-11-22T20:14:59.083Z,99102.84
2022-11-22T20:17:30.801Z,99102.53
2022-11-22T20:20:01.137Z,99111.85
2022-11-22T20:22:31.904Z,99113.46
2022-11-22T20:25:02.646Z,99110.62
2022-11-22T20:27:32.171Z,99112.88
2022-11-22T20:30:01.848Z,99111.06
2022-11-22T20:32:32.576Z,99112.27
2022-11-22T20:35:02.286Z,99107.90
2022-11-22T20:37:33.865Z,99109.48
2022-11-22T20:40:05.246Z,99109.89
2022-11-22T20:42:35.366Z,99112.04
2022-11-22T20:45:09.323Z,99117.80
2022-11-22T20:47:39.427Z,99120.55
2022-11-22T20:50:09.689Z,99124.60
2022-11-22T20:52:39.445Z,99123.66
2022-11-22T20:55:11.074Z,99124.15
2022-11-22T20:57:41.933Z,99120.88
2022-11-22T21:00:12.711Z,99121.52
2022-11-22T21:02:42.227Z,99118.83
2022-11-22T21:05:12.520Z,99120.08
2022-11-22T21:07:42.481Z,99120.23
2022-11-22T21:10:12.786Z,99119.50
2022-11-22T21:12:43.574Z,99120.70
2022-11-22T21:15:16.031Z,99121.84
2022-11-22T21:18:17.065Z,99119.82
2022-11-22T21:20:37.548Z,99130.29
2022-11-22T21:23:06.784Z,99131.70
2022-11-22T21:25:36.595Z,99138.18
2022-11-22T21:28:07.210Z,99137.85
2022-11-22T21:30:37.285Z,99136.08
2022-11-22T21:33:06.492Z,99135.61
2022-11-22T21:35:37.653Z,99137.94
2022-11-22T21:38:06.606Z,99133.58
2022-11-22T21:40:35.705Z,99139.58
2022-11-22T21:43:04.561Z,99139.83
2022-11-22T21:45:34.003Z,99138.14
2022-11-22T21:48:04.936Z,99136.52
2022-11-22T21:50:33.631Z,99131.33
2022-11-22T21:53:02.644Z,99136.28
2022-11-22T21:55:31.500Z,99136.72
2022-11-22T21:58:01.270Z,99134.86
2022-11-22T22:00:30.000Z,99137.89
2022-11-22T22:02:58.608Z,99136.61
2022-11-22T22:05:27.394Z,99132.16
2022-11-22T22:07:55.902Z,99134.13
2022-11-22T22:10:24.440Z,99133.73
2022-11-22T22:12:53.023Z,99132.19
2022-11-22T22:15:22.635Z,99132.20
2022-11-22T22:17:55.717Z,99133.73
2022-11-22T22:20:24.520Z,99136.02
2022-11-22T22:22:53.095Z,99133.69
2022-11-22T22:25:21.981Z,99138.10
2022-11-22T22:27:50.478Z,99141.33
2022-11-22T22:30:23.346Z,99140.41
2022-11-22T22:32:52.249Z,99139.77
2022-11-22T22:35:21.618Z,99138.47
2022-11-22T22:37:50.335Z,99141.14
2022-11-22T22:40:21.781Z,99143.77
2022-11-22T22:42:50.876Z,99141.34
2022-11-22T22:45:20.511Z,99144.75
2022-11-22T22:47:49.176Z,99145.67
2022-11-22T22:50:17.883Z,99149.77
2022-11-22T22:52:46.394Z,99149.56
2022-11-22T22:55:14.720Z,99147.95
2022-11-22T22:57:42.910Z,99147.07
2022-11-22T23:00:12.088Z,99149.50
2022-11-22T23:02:41.253Z,99145.93
2022-11-22T23:05:09.881Z,99148.22
2022-11-22T23:07:43.699Z,99148.23
2022-11-22T23:10:12.357Z,99148.21
2022-11-22T23:12:40.710Z,99153.59
2022-11-22T23:15:09.421Z,99158.02
2022-11-22T23:17:37.796Z,99160.34
2022-11-22T23:20:06.692Z,99163.67
2022-11-22T23:22:34.940Z,99162.45
2022-11-22T23:25:03.455Z,99163.39
2022-11-22T23:27:32.045Z,99158.11
2022-11-22T23:30:00.416Z,99159.13
2022-11-22T23:32:32.069Z,99160.95
2022-11-22T23:35:00.565Z,99158.59
2022-11-22T23:37:28.999Z,99156.91
2022-11-22T23:39:57.313Z,99153.58
2022-11-22T23:42:25.595Z,99155.59
2022-11-22T23:44:54.273Z,99152.36
2022-11-22T23:47:23.884Z,99154.36
2022-11-22T23:49:52.248Z,99152.27
2022-11-22T23:52:20.639Z,99151.53
2022-11-22T23:54:48.986Z,99150.16
2022-11-22T23:57:17.386Z,99146.02
2022-11-22T23:59:45.885Z,99149.90
